createdAt,value
2018-04-11T00:00:04.136Z,7.70
2018-04-11T00:02:30.723Z,7.23
2018-04-11T00:04:57.327Z,7.93
2018-04-11T00:07:23.987Z,8.10
2018-04-11T00:09:50.665Z,8.00
2018-04-11T00:12:17.386Z,8.53
2018-04-11T00:14:43.975Z,6.90
2018-04-11T00:17:10.574Z,8.43
2018-04-11T00:19:37.278Z,6.50
2018-04-11T00:22:03.884Z,6.03
2018-04-11T00:24:30.584Z,7.83
2018-04-11T00:26:57.344Z,9.20
2018-04-11T00:29:23.953Z,10.40
2018-04-11T00:31:50.592Z,12.17
2018-04-11T00:34:17.244Z,11.30
2018-04-11T00:36:43.875Z,13.33
2018-04-11T00:39:11.442Z,15.90
2018-04-11T00:41:38.053Z,16.40
2018-04-11T00:44:04.669Z,16.07
2018-04-11T00:46:31.267Z,14.13
2018-04-11T00:48:57.887Z,13.30
2018-04-11T00:51:24.573Z,13.20
2018-04-11T00:53:51.165Z,13.43
2018-04-11T00:56:17.783Z,11.50
2018-04-11T00:58:44.387Z,12.47
2018-04-11T01:01:11.007Z,11.00
2018-04-11T01:03:37.626Z,12.60
2018-04-11T01:06:04.253Z,13.77
2018-04-11T01:08:30.847Z,14.80
2018-04-11T01:10:57.450Z,12.73
2018-04-11T01:13:24.087Z,10.80
2018-04-11T01:15:50.866Z,9.13
2018-04-11T01:18:17.476Z,7.57
2018-04-11T01:20:44.086Z,6.30
2018-04-11T01:23:10.727Z,5.20
2018-04-11T01:25:37.379Z,4.77
2018-04-11T01:28:04.039Z,4.60
2018-04-11T01:30:30.634Z,5.03
2018-04-11T01:32:57.275Z,5.00
2018-04-11T01:35:23.887Z,4.83
2018-04-11T01:37:50.665Z,5.03
2018-04-11T01:40:17.280Z,4.93
2018-04-11T01:42:43.895Z,5.37
2018-04-11T01:45:11.427Z,6.83
2018-04-11T01:47:38.122Z,7.33
2018-04-11T01:50:04.789Z,7.10
2018-04-11T01:52:31.416Z,7.93
2018-04-11T01:54:58.375Z,8.63
2018-04-11T01:57:25.188Z,8.77
2018-04-11T01:59:51.822Z,8.77
2018-04-11T02:02:18.479Z,10.37
2018-04-11T02:04:45.145Z,12.83
2018-04-11T02:07:11.939Z,12.80
2018-04-11T02:09:39.066Z,13.27
2018-04-11T02:12:05.663Z,12.50
2018-04-11T02:14:32.335Z,11.83
2018-04-11T02:16:58.910Z,14.13
2018-04-11T02:19:25.553Z,13.60
2018-04-11T02:21:52.165Z,13.73
2018-04-11T02:24:18.770Z,13.67
2018-04-11T02:26:45.921Z,15.10
2018-04-11T02:29:12.562Z,14.10
2018-04-11T02:31:39.154Z,15.10
2018-04-11T02:34:05.807Z,13.90
2018-04-11T02:36:32.393Z,15.63
2018-04-11T02:38:59.175Z,15.37
2018-04-11T02:41:25.801Z,14.50
2018-04-11T02:43:52.424Z,14.30
2018-04-11T02:46:19.021Z,16.40
2018-04-11T02:48:45.663Z,16.27
2018-04-11T02:51:12.291Z,17.90
2018-04-11T02:53:38.886Z,16.50
2018-04-11T02:56:05.607Z,19.07
2018-04-11T02:58:32.219Z,18.80
2018-04-11T03:00:58.948Z,20.07
2018-04-11T03:03:25.543Z,20.93
2018-04-11T03:05:52.204Z,21.20
2018-04-11T03:08:18.874Z,22.43
2018-04-11T03:10:45.543Z,22.97
2018-04-11T03:13:12.142Z,23.20
2018-04-11T03:15:38.903Z,23.47
2018-04-11T03:18:05.580Z,23.63
2018-04-11T03:20:32.205Z,23.80
2018-04-11T03:22:58.814Z,23.10
2018-04-11T03:25:26.288Z,22.40
2018-04-11T03:27:53.130Z,21.33
2018-04-11T03:30:19.796Z,20.80
2018-04-11T03:32:46.444Z,20.50
2018-04-11T03:35:13.045Z,19.60
2018-04-11T03:37:39.889Z,20.70
2018-04-11T03:40:06.534Z,18.80
2018-04-11T03:42:33.138Z,20.50
2018-04-11T03:44:59.759Z,18.97
2018-04-11T03:47:26.391Z,19.87
2018-04-11T03:49:53.108Z,20.40
2018-04-11T03:52:19.735Z,19.33
2018-04-11T03:54:46.336Z,22.10
2018-04-11T03:57:12.936Z,19.33
2018-04-11T03:59:39.547Z,23.90
2018-04-11T04:02:06.154Z,23.53
2018-04-11T04:04:32.771Z,22.20
2018-04-11T04:06:59.466Z,21.23
2018-04-11T04:09:26.070Z,18.67
2018-04-11T04:11:53.049Z,16.83
2018-04-11T04:14:26.203Z,16.37
2018-04-11T04:16:58.884Z,16.67
2018-04-11T04:19:31.399Z,17.27
2018-04-11T04:21:58.067Z,17.83
2018-04-11T04:24:24.676Z,21.07
2018-04-11T04:26:51.282Z,19.70
2018-04-11T04:29:18.305Z,21.17
2018-04-11T04:31:44.941Z,19.70
2018-04-11T04:34:11.673Z,20.43
2018-04-11T04:36:38.303Z,21.93
2018-04-11T04:39:04.923Z,21.13
2018-04-11T04:41:31.571Z,21.67
2018-04-11T04:43:58.271Z,20.80
2018-04-11T04:46:25.331Z,19.80
2018-04-11T04:48:51.920Z,19.60
2018-04-11T04:51:18.582Z,21.27
2018-04-11T04:53:45.194Z,20.20
2018-04-11T04:56:12.131Z,18.50
2018-04-11T04:58:38.814Z,18.90
2018-04-11T05:01:05.415Z,19.53
2018-04-11T05:03:32.057Z,17.10
2018-04-11T05:05:58.688Z,18.70
2018-04-11T05:08:25.290Z,19.07
2018-04-11T05:10:51.914Z,18.30
2018-04-11T05:13:18.537Z,20.23
2018-04-11T05:15:45.141Z,19.03
2018-04-11T05:18:11.790Z,18.70
2018-04-11T05:20:38.694Z,19.23
2018-04-11T05:23:05.336Z,18.23
2018-04-11T05:25:31.952Z,18.60
2018-04-11T05:27:58.565Z,19.23
2018-04-11T05:30:25.191Z,19.40
2018-04-11T05:32:51.818Z,18.67
2018-04-11T05:35:20.366Z,19.23
2018-04-11T05:37:47.036Z,19.40
2018-04-11T05:40:13.635Z,18.87
2018-04-11T05:42:40.244Z,19.80
2018-04-11T05:45:06.896Z,19.43
2018-04-11T05:47:33.491Z,19.40
2018-04-11T05:50:00.099Z,20.17
2018-04-11T05:52:26.756Z,19.37
2018-04-11T05:54:53.390Z,20.27
2018-04-11T05:57:19.975Z,19.00
2018-04-11T05:59:46.573Z,18.20
2018-04-11T06:02:13.184Z,21.40
2018-04-11T06:04:39.931Z,21.47
2018-04-11T06:07:06.544Z,21.07
2018-04-11T06:09:33.283Z,20.17
2018-04-11T06:11:59.887Z,20.77
2018-04-11T06:14:26.531Z,20.00
2018-04-11T06:16:53.179Z,21.07
2018-04-11T06:19:20.783Z,21.23
2018-04-11T06:21:47.395Z,21.63
2018-04-11T06:24:14.024Z,21.90
2018-04-11T06:26:40.654Z,22.43
2018-04-11T06:29:07.258Z,23.13
2018-04-11T06:31:33.888Z,21.57
2018-04-11T06:34:00.507Z,23.33
2018-04-11T06:36:27.120Z,21.90
2018-04-11T06:38:53.793Z,23.23
2018-04-11T06:41:20.379Z,22.07
2018-04-11T06:43:47.028Z,25.90
2018-04-11T06:46:13.710Z,28.37
2018-04-11T06:48:40.294Z,23.40
2018-04-11T06:51:06.912Z,22.10
2018-04-11T06:53:33.535Z,23.50
2018-04-11T06:56:00.158Z,21.43
2018-04-11T06:58:26.906Z,22.93
2018-04-11T07:00:53.515Z,22.50
2018-04-11T07:03:20.115Z,22.57
2018-04-11T07:05:46.790Z,22.03
2018-04-11T07:08:13.379Z,21.00
2018-04-11T07:10:40.048Z,20.70
2018-04-11T07:13:06.664Z,21.43
2018-04-11T07:15:33.249Z,20.23
2018-04-11T07:17:59.848Z,20.50
2018-04-11T07:20:26.488Z,18.47
2018-04-11T07:22:53.062Z,18.77
2018-04-11T07:25:19.713Z,18.40
2018-04-11T07:27:46.323Z,19.17
2018-04-11T07:30:12.962Z,18.73
2018-04-11T07:32:39.572Z,18.90
2018-04-11T07:35:06.186Z,17.70
2018-04-11T07:37:32.843Z,17.97
2018-04-11T07:39:59.549Z,19.10
2018-04-11T07:42:26.401Z,21.47
2018-04-11T07:44:52.995Z,18.30
2018-04-11T07:47:19.581Z,17.70
2018-04-11T07:49:46.205Z,18.90
2018-04-11T07:52:12.840Z,16.17
2018-04-11T07:54:39.644Z,16.40
2018-04-11T07:57:06.256Z,17.00
2018-04-11T07:59:32.904Z,16.67
2018-04-11T08:01:59.516Z,16.73
2018-04-11T08:04:26.476Z,15.33
2018-04-11T08:06:53.314Z,16.50
2018-04-11T08:09:19.917Z,15.03
2018-04-11T08:11:46.535Z,16.10
2018-04-11T08:14:13.162Z,15.37
2018-04-11T08:16:39.845Z,19.53
2018-04-11T08:19:06.436Z,15.03
2018-04-11T08:21:33.066Z,15.93
2018-04-11T08:23:59.255Z,17.87
2018-04-11T08:26:26.713Z,15.10
2018-04-11T08:28:54.560Z,15.70
2018-04-11T08:31:21.308Z,16.33
2018-04-11T08:33:47.935Z,17.07
2018-04-11T08:36:14.550Z,15.70
2018-04-11T08:38:41.173Z,14.67
2018-04-11T08:41:07.924Z,16.00
2018-04-11T08:43:34.559Z,16.30
2018-04-11T08:46:01.169Z,14.73
2018-04-11T08:48:27.954Z,13.77
2018-04-11T08:50:54.585Z,16.07
2018-04-11T08:53:21.158Z,14.27
2018-04-11T08:55:47.925Z,13.63
2018-04-11T08:58:14.529Z,13.00
2018-04-11T09:00:41.137Z,13.90
2018-04-11T09:03:07.768Z,16.40
2018-04-11T09:05:34.442Z,12.03
2018-04-11T09:08:01.061Z,11.30
2018-04-11T09:10:27.675Z,13.10
2018-04-11T09:12:54.301Z,14.40
2018-04-11T09:15:20.901Z,13.60
2018-04-11T09:17:47.624Z,12.43
2018-04-11T09:20:14.233Z,11.60
2018-04-11T09:22:40.868Z,12.50
2018-04-11T09:25:07.685Z,13.50
2018-04-11T09:27:34.286Z,12.60
2018-04-11T09:30:00.919Z,12.60
2018-04-11T09:32:27.540Z,13.73
2018-04-11T09:34:54.164Z,14.07
2018-04-11T09:37:20.775Z,13.57
2018-04-11T09:39:47.369Z,14.97
2018-04-11T09:42:14.013Z,12.73
2018-04-11T09:44:40.601Z,12.40
2018-04-11T09:47:07.183Z,12.40
2018-04-11T09:49:33.850Z,14.03
2018-04-11T09:52:00.503Z,11.30
2018-04-11T09:54:27.122Z,9.37
2018-04-11T09:56:53.771Z,9.87
2018-04-11T09:59:20.534Z,9.83
2018-04-11T10:01:50.064Z,9.13
2018-04-11T10:04:16.655Z,9.20
2018-04-11T10:06:43.341Z,10.27
2018-04-11T10:09:10.009Z,11.70
2018-04-11T10:11:36.626Z,10.83
2018-04-11T10:14:03.244Z,10.20
2018-04-11T10:16:29.875Z,9.73
2018-04-11T10:18:56.488Z,9.60
2018-04-11T10:21:23.152Z,7.57
2018-04-11T10:23:50.538Z,8.43
2018-04-11T10:26:17.173Z,9.20
2018-04-11T10:28:44.730Z,8.70
2018-04-11T10:31:11.554Z,8.80
2018-04-11T10:33:38.257Z,8.43
2018-04-11T10:36:04.965Z,8.70
2018-04-11T10:38:31.599Z,8.30
2018-04-11T10:40:58.252Z,8.07
2018-04-11T10:43:24.854Z,8.57
2018-04-11T12:07:47.897Z,9.27
2018-04-11T12:10:14.716Z,7.90
2018-04-11T12:12:41.434Z,8.00
2018-04-11T12:15:08.277Z,9.63
2018-04-11T12:17:34.937Z,8.83
2018-04-11T12:20:01.779Z,8.77
2018-04-11T12:22:28.374Z,8.67
2018-04-11T12:24:55.108Z,8.90
2018-04-11T12:27:21.798Z,9.67
2018-04-11T12:29:48.752Z,8.67
2018-04-11T12:32:15.353Z,8.97
2018-04-11T12:34:41.961Z,7.83
2018-04-11T12:37:08.592Z,8.00
2018-04-11T12:39:35.217Z,7.33
2018-04-11T12:42:01.853Z,7.43
2018-04-11T12:44:28.584Z,7.53
2018-04-11T12:46:55.264Z,7.20
2018-04-11T12:49:22.056Z,6.50
2018-04-11T12:51:48.723Z,5.47
2018-04-11T12:54:15.455Z,5.63
2018-04-11T12:56:42.161Z,6.63
2018-04-11T12:59:09.510Z,6.20
2018-04-11T13:01:36.110Z,6.30
2018-04-11T13:04:02.839Z,6.50
2018-04-11T13:06:29.521Z,6.17
2018-04-11T13:08:56.096Z,6.97
2018-04-11T13:11:23.608Z,6.13
2018-04-11T13:13:50.346Z,6.03
2018-04-11T13:16:16.966Z,6.97
2018-04-11T13:18:43.635Z,6.30
2018-04-11T13:21:10.311Z,7.23
2018-04-11T13:23:36.937Z,6.23
2018-04-11T13:26:03.843Z,7.90
2018-04-11T13:28:30.433Z,8.57
2018-04-11T13:30:57.080Z,8.10
2018-04-11T13:33:23.713Z,8.07
2018-04-11T13:35:50.295Z,8.27
2018-04-11T13:38:25.432Z,9.10
2018-04-11T13:40:52.322Z,9.57
2018-04-11T13:43:18.954Z,9.20
2018-04-11T13:45:45.593Z,9.33
2018-04-11T13:48:12.276Z,9.50
2018-04-11T13:50:38.951Z,9.57
2018-04-11T13:53:05.597Z,9.40
2018-04-11T13:55:32.170Z,11.40
2018-04-11T13:57:58.833Z,10.37
2018-04-11T14:00:25.419Z,9.53
2018-04-11T14:02:52.053Z,9.27
2018-04-11T14:05:18.679Z,8.90
2018-04-11T14:07:45.266Z,8.87
2018-04-11T14:10:11.951Z,9.13
2018-04-11T14:12:38.578Z,8.90
2018-04-11T14:15:05.959Z,8.97
2018-04-11T14:17:32.739Z,8.67
2018-04-11T14:19:59.426Z,8.37
2018-04-11T14:22:26.064Z,9.10
2018-04-11T14:24:52.695Z,9.10
2018-04-11T14:27:19.368Z,8.10
2018-04-11T14:29:46.026Z,8.67
2018-04-11T14:32:12.759Z,7.27
2018-04-11T14:34:39.370Z,8.70
2018-04-11T14:37:06.067Z,8.17
2018-04-11T14:39:32.680Z,7.87
2018-04-11T14:41:59.387Z,7.87
2018-04-11T14:44:25.989Z,7.53
2018-04-11T14:46:52.648Z,7.90
2018-04-11T14:49:19.348Z,7.47
2018-04-11T14:51:46.014Z,6.97
2018-04-11T14:54:12.639Z,7.97
2018-04-11T14:56:39.293Z,8.27
2018-04-11T14:59:05.945Z,6.60
2018-04-11T15:01:32.764Z,7.43
2018-04-11T15:03:59.633Z,8.33
2018-04-11T15:06:26.281Z,8.00
2018-04-11T15:08:52.933Z,7.47
2018-04-11T15:11:19.603Z,6.70
2018-04-11T15:13:46.449Z,8.00
2018-04-11T15:16:13.103Z,7.60
2018-04-11T15:18:39.729Z,7.80
2018-04-11T15:21:06.373Z,7.47
2018-04-11T15:23:32.993Z,8.07
2018-04-11T15:25:59.647Z,7.47
2018-04-11T15:28:26.319Z,7.40
2018-04-11T15:30:53.681Z,6.73
2018-04-11T15:33:20.265Z,6.43
2018-04-11T15:35:46.895Z,6.80
2018-04-11T15:38:13.486Z,6.50
2018-04-11T15:40:40.132Z,5.67
2018-04-11T15:43:06.747Z,5.30
2018-04-11T15:45:33.561Z,5.60
2018-04-11T15:48:00.171Z,5.47
2018-04-11T15:50:27.442Z,5.40
2018-04-11T15:52:54.098Z,5.30
2018-04-11T15:55:21.704Z,5.53
2018-04-11T15:57:48.397Z,4.90
2018-04-11T16:00:15.313Z,4.87
2018-04-11T16:02:41.943Z,5.30
2018-04-11T16:05:08.666Z,5.50
2018-04-11T16:07:35.371Z,5.20
2018-04-11T16:10:02.137Z,6.60
2018-04-11T16:12:28.767Z,5.03
2018-04-11T16:14:55.484Z,5.53
2018-04-11T16:17:22.085Z,6.57
2018-04-11T16:19:48.823Z,5.27
2018-04-11T16:22:15.476Z,5.83
2018-04-11T16:24:42.057Z,4.93
2018-04-11T16:27:08.729Z,5.30
2018-04-11T16:29:35.435Z,4.90
2018-04-11T16:32:02.059Z,5.00
2018-04-11T16:34:28.810Z,4.70
2018-04-11T16:36:55.445Z,4.73
2018-04-11T16:39:22.136Z,4.87
2018-04-11T16:41:48.884Z,4.97
2018-04-11T16:44:16.309Z,5.30
2018-04-11T16:46:42.962Z,5.80
2018-04-11T16:49:09.570Z,5.33
2018-04-11T16:51:36.195Z,5.00
2018-04-11T16:54:02.894Z,4.87
2018-04-11T16:56:29.555Z,5.23
2018-04-11T16:58:56.413Z,5.47
2018-04-11T17:01:23.126Z,5.70
2018-04-11T17:03:49.739Z,5.60
2018-04-11T17:06:16.326Z,5.93
2018-04-11T17:08:42.915Z,5.87
2018-04-11T17:11:09.642Z,5.60
2018-04-11T17:13:36.290Z,5.93
2018-04-11T17:16:03.089Z,5.57
2018-04-11T17:18:29.676Z,5.43
2018-04-11T17:21:02.179Z,5.27
2018-04-11T17:23:34.611Z,5.37
2018-04-11T17:26:07.212Z,5.57
2018-04-11T17:28:39.694Z,5.30
2018-04-11T17:31:09.222Z,5.20
2018-04-11T17:33:35.863Z,5.03
2018-04-11T17:36:02.498Z,5.60
2018-04-11T17:38:29.323Z,4.70
2018-04-11T17:40:56.001Z,5.17
2018-04-11T17:43:22.934Z,5.13
2018-04-11T18:29:28.300Z,4.40
2018-04-11T18:31:54.919Z,5.13
2018-04-11T18:34:21.547Z,5.13
2018-04-11T18:36:48.232Z,4.43
2018-04-11T18:39:15.131Z,4.50
2018-04-11T18:41:41.769Z,4.30
2018-04-11T18:44:08.445Z,4.47
2018-04-11T18:46:35.052Z,4.00
2018-04-11T18:49:01.711Z,3.60
2018-04-11T18:51:28.303Z,4.03
2018-04-11T18:53:54.966Z,4.50
2018-04-11T18:56:22.320Z,6.03
2018-04-11T18:58:49.023Z,4.70
2018-04-11T19:01:15.628Z,6.50
2018-04-11T19:03:42.243Z,5.23
2018-04-11T19:06:09.018Z,4.40
2018-04-11T19:08:36.104Z,5.20
2018-04-11T19:11:02.882Z,4.80
2018-04-11T19:13:31.474Z,4.50
2018-04-11T19:15:58.491Z,4.63
2018-04-11T19:18:26.382Z,4.70
2018-04-11T19:21:00.853Z,4.50
2018-04-11T19:23:28.419Z,4.00
2018-04-11T19:25:55.115Z,3.50
2018-04-11T19:28:21.784Z,3.70
2018-04-11T19:30:48.543Z,3.37
2018-04-11T19:33:15.482Z,2.80
2018-04-11T19:35:42.436Z,2.70
2018-04-11T19:38:09.059Z,2.73
2018-04-11T19:40:36.050Z,2.70
2018-04-11T19:43:02.794Z,2.60
2018-04-11T19:45:29.490Z,3.23
2018-04-11T19:47:58.406Z,2.80
2018-04-11T19:50:25.563Z,2.70
2018-04-11T19:52:52.219Z,2.90
2018-04-11T19:55:18.942Z,2.73
2018-04-11T19:57:45.613Z,3.23
2018-04-11T20:00:14.175Z,3.13
2018-04-11T20:02:40.850Z,4.27
2018-04-11T20:05:08.951Z,6.70
2018-04-11T20:07:36.589Z,4.53
2018-04-11T20:10:03.432Z,4.20
2018-04-11T20:12:30.107Z,3.57
2018-04-11T20:14:56.692Z,3.60
2018-04-11T20:17:23.336Z,3.73
2018-04-11T20:19:50.050Z,4.10
2018-04-11T20:22:16.862Z,3.57
2018-04-11T20:24:43.534Z,3.13
2018-04-11T20:27:10.154Z,3.53
2018-04-11T20:29:37.032Z,4.07
2018-04-11T20:32:03.682Z,3.80
2018-04-11T20:34:30.460Z,4.50
2018-04-11T20:36:57.100Z,5.30
2018-04-11T20:39:23.729Z,4.50
2018-04-11T20:41:50.371Z,3.20
2018-04-11T20:44:17.639Z,3.43
2018-04-11T20:46:44.545Z,3.60
2018-04-11T20:49:11.332Z,3.40
2018-04-11T20:51:37.943Z,3.90
2018-04-11T20:54:04.633Z,3.70
2018-04-11T20:56:31.247Z,3.97
2018-04-11T20:58:57.906Z,3.63
2018-04-11T21:01:24.616Z,4.30
2018-04-11T21:03:51.299Z,4.20
2018-04-11T21:06:17.965Z,3.57
2018-04-11T21:08:44.666Z,3.77
2018-04-11T21:11:11.395Z,4.27
2018-04-11T21:13:38.040Z,4.60
2018-04-11T21:16:04.829Z,3.73
2018-04-11T21:18:31.644Z,4.17
2018-04-11T21:20:58.349Z,3.63
2018-04-11T21:23:25.046Z,3.63
2018-04-11T21:25:51.805Z,3.90
2018-04-11T21:28:18.607Z,4.23
2018-04-11T21:30:45.243Z,4.50
2018-04-11T21:33:11.944Z,3.73
2018-04-11T21:35:38.675Z,4.00
2018-04-11T21:38:05.458Z,4.47
2018-04-11T21:40:32.084Z,4.00
2018-04-11T21:42:58.686Z,4.00
2018-04-11T21:45:25.326Z,3.80
2018-04-11T21:47:51.973Z,4.47
2018-04-11T21:50:18.650Z,4.03
2018-04-11T21:52:46.116Z,4.40
2018-04-11T21:55:12.756Z,3.70
2018-04-11T21:57:39.366Z,4.47
2018-04-11T22:00:05.977Z,4.70
2018-04-11T22:02:32.577Z,4.70
2018-04-11T22:04:59.277Z,4.40
2018-04-11T22:07:25.986Z,25.50
2018-04-11T22:09:52.599Z,4.20
2018-04-11T22:12:19.189Z,4.70
2018-04-11T22:14:45.803Z,4.80
2018-04-11T22:17:12.462Z,4.57
2018-04-11T22:19:39.091Z,4.60
2018-04-11T22:22:05.914Z,4.60
2018-04-11T22:24:32.486Z,4.60
2018-04-11T22:26:59.093Z,4.97
2018-04-11T22:29:25.789Z,4.67
2018-04-11T22:31:52.384Z,5.17
2018-04-11T22:34:18.976Z,5.60
2018-04-11T22:36:45.605Z,5.47
2018-04-11T22:39:12.245Z,6.40
2018-04-11T22:41:38.899Z,5.53
2018-04-11T22:44:05.534Z,5.60
2018-04-11T22:46:32.143Z,5.83
2018-04-11T22:48:58.840Z,5.63
2018-04-11T22:51:25.450Z,6.23
2018-04-11T22:53:52.078Z,5.97
2018-04-11T22:56:18.657Z,6.43
2018-04-11T22:58:45.309Z,6.47
2018-04-11T23:01:11.905Z,6.60
2018-04-11T23:03:38.562Z,6.60
2018-04-11T23:06:05.207Z,6.83
2018-04-11T23:08:31.841Z,7.47
2018-04-11T23:10:58.456Z,5.93
2018-04-11T23:13:25.068Z,7.13
2018-04-11T23:15:51.708Z,6.87
2018-04-11T23:18:18.361Z,6.90
2018-04-11T23:20:44.952Z,7.53
2018-04-11T23:23:11.582Z,7.70
2018-04-11T23:25:38.176Z,8.70
2018-04-11T23:28:04.812Z,9.00
2018-04-11T23:30:31.389Z,8.47
2018-04-11T23:32:57.982Z,9.47
2018-04-11T23:35:24.600Z,8.27
2018-04-11T23:37:51.201Z,9.53
2018-04-11T23:40:17.811Z,8.77
2018-04-11T23:42:44.424Z,9.80
2018-04-11T23:45:11.049Z,10.03
2018-04-11T23:47:37.636Z,9.63
2018-04-11T23:50:04.297Z,9.60
2018-04-11T23:52:30.873Z,10.00
2018-04-11T23:54:57.477Z,10.70
2018-04-11T23:57:24.089Z,11.40
2018-04-11T23:59:50.694Z,11.27
